createdAt,value
2019-02-25T00:00:12.049Z,65.23
2019-02-25T00:02:39.294Z,65.20
2019-02-25T00:05:07.038Z,65.18
2019-02-25T00:07:34.295Z,65.01
2019-02-25T00:10:01.592Z,65.16
2019-02-25T00:12:28.867Z,65.32
2019-02-25T00:14:56.097Z,65.43
2019-02-25T00:17:23.402Z,65.50
2019-02-25T00:19:51.701Z,65.39
2019-02-25T00:22:18.954Z,65.41
2019-02-25T00:24:46.811Z,65.41
2019-02-25T00:27:14.054Z,65.37
2019-02-25T00:29:41.359Z,65.32
2019-02-25T00:32:08.648Z,65.27
2019-02-25T00:34:35.913Z,65.27
2019-02-25T00:37:03.243Z,65.22
2019-02-25T00:39:30.483Z,65.11
2019-02-25T00:41:57.762Z,65.19
2019-02-25T00:44:25.053Z,65.20
2019-02-25T00:46:54.423Z,65.21
2019-02-25T00:49:22.053Z,65.15
2019-02-25T00:51:58.855Z,65.19
2019-02-25T00:54:26.113Z,65.56
2019-02-25T00:56:53.391Z,65.60
2019-02-25T00:59:20.631Z,65.58
2019-02-25T01:01:47.885Z,65.63
2019-02-25T01:04:15.179Z,65.64
2019-02-25T01:06:42.433Z,65.14
2019-02-25T01:09:09.720Z,65.98
2019-02-25T01:11:36.998Z,66.10
2019-02-25T01:14:04.358Z,66.11
2019-02-25T01:16:31.608Z,66.21
2019-02-25T01:19:01.133Z,66.21
2019-02-25T01:21:28.373Z,66.08
2019-02-25T01:23:55.745Z,66.06
2019-02-25T01:26:25.331Z,65.83
2019-02-25T01:28:52.587Z,66.12
2019-02-25T01:31:19.905Z,66.11
2019-02-25T01:33:47.209Z,66.04
2019-02-25T01:36:14.443Z,66.00
2019-02-25T01:38:41.735Z,65.97
2019-02-25T01:41:08.999Z,65.94
2019-02-25T01:43:36.251Z,65.90
2019-02-25T01:46:03.553Z,65.86
2019-02-25T01:48:30.799Z,65.77
2019-02-25T01:50:58.049Z,65.97
2019-02-25T01:53:25.324Z,65.95
2019-02-25T01:55:52.573Z,65.83
2019-02-25T01:58:19.843Z,65.78
2019-02-25T02:00:47.103Z,65.79
2019-02-25T02:03:14.389Z,65.81
2019-02-25T02:05:41.642Z,65.75
2019-02-25T02:08:08.874Z,65.76
2019-02-25T02:10:36.136Z,65.74
2019-02-25T02:13:03.373Z,65.86
2019-02-25T02:15:30.651Z,65.85
2019-02-25T02:17:57.937Z,65.88
2019-02-25T02:20:25.233Z,65.92
2019-02-25T02:22:52.469Z,65.97
2019-02-25T02:25:19.751Z,65.89
2019-02-25T02:27:47.015Z,66.05
2019-02-25T02:30:15.986Z,66.01
2019-02-25T02:32:43.255Z,65.99
2019-02-25T02:35:10.694Z,65.83
2019-02-25T02:37:37.947Z,65.87
2019-02-25T02:40:06.052Z,65.92
2019-02-25T02:42:33.513Z,66.10
2019-02-25T02:45:16.919Z,66.21
2019-02-25T02:47:56.336Z,66.27
2019-02-25T02:50:25.052Z,66.25
2019-02-25T02:52:52.318Z,66.25
2019-02-25T02:55:19.591Z,66.16
2019-02-25T02:57:46.838Z,66.17
2019-02-25T03:00:16.010Z,66.12
2019-02-25T03:02:43.294Z,66.14
2019-02-25T03:05:12.587Z,66.18
2019-02-25T03:07:39.866Z,66.13
2019-02-25T03:10:08.301Z,66.11
2019-02-25T03:12:35.555Z,66.17
2019-02-25T03:15:03.387Z,66.31
2019-02-25T03:17:30.656Z,66.48
2019-02-25T03:19:58.363Z,66.81
2019-02-25T03:22:25.622Z,67.27
2019-02-25T03:24:52.933Z,67.58
2019-02-25T03:27:20.171Z,67.73
2019-02-25T03:29:47.455Z,67.59
2019-02-25T03:32:14.709Z,67.32
2019-02-25T03:34:41.966Z,67.22
2019-02-25T03:37:09.249Z,67.17
2019-02-25T03:39:36.527Z,67.08
2019-02-25T03:42:03.978Z,67.08
2019-02-25T03:44:31.315Z,67.13
2019-02-25T03:46:58.544Z,67.06
2019-02-25T03:49:25.801Z,67.00
2019-02-25T03:51:53.125Z,66.98
2019-02-25T03:54:20.354Z,66.91
2019-02-25T03:56:47.628Z,66.83
2019-02-25T03:59:14.926Z,66.73
2019-02-25T04:01:42.257Z,66.67
2019-02-25T04:04:09.495Z,66.60
2019-02-25T04:06:36.896Z,66.53
2019-02-25T04:09:05.876Z,66.63
2019-02-25T04:11:33.150Z,66.61
2019-02-25T04:14:00.382Z,66.58
2019-02-25T04:16:27.975Z,66.53
2019-02-25T04:18:55.220Z,66.46
2019-02-25T04:21:22.504Z,66.54
2019-02-25T04:23:49.820Z,66.73
2019-02-25T04:26:17.133Z,66.91
2019-02-25T04:28:44.386Z,66.90
2019-02-25T04:31:11.615Z,66.71
2019-02-25T04:33:38.903Z,66.82
2019-02-25T04:36:06.147Z,66.94
2019-02-25T04:38:33.467Z,66.91
2019-02-25T04:41:00.696Z,66.95
2019-02-25T04:43:27.939Z,66.87
2019-02-25T04:45:55.222Z,66.78
2019-02-25T04:48:22.484Z,66.77
2019-02-25T04:50:49.732Z,66.86
2019-02-25T04:53:17.024Z,66.90
2019-02-25T04:55:44.313Z,66.77
2019-02-25T04:58:11.569Z,66.69
2019-02-25T05:00:38.840Z,66.65
2019-02-25T05:03:06.097Z,66.63
2019-02-25T05:05:33.345Z,66.56
2019-02-25T05:08:00.664Z,66.48
2019-02-25T05:10:27.896Z,66.45
2019-02-25T05:13:01.327Z,66.35
2019-02-25T05:15:28.916Z,66.42
2019-02-25T05:17:56.167Z,66.41
2019-02-25T05:20:23.460Z,66.43
2019-02-25T05:22:50.679Z,66.51
2019-02-25T05:25:17.970Z,66.54
2019-02-25T05:27:45.278Z,66.47
2019-02-25T05:30:12.629Z,66.56
2019-02-25T05:32:39.869Z,66.59
2019-02-25T05:35:07.987Z,66.57
2019-02-25T05:37:35.313Z,66.58
2019-02-25T05:40:02.741Z,66.56
2019-02-25T05:42:29.980Z,66.58
2019-02-25T05:44:57.254Z,66.57
2019-02-25T05:47:24.498Z,66.59
2019-02-25T05:49:51.737Z,66.61
2019-02-25T05:52:19.017Z,66.55
2019-02-25T05:54:46.245Z,66.54
2019-02-25T05:57:13.503Z,66.57
2019-02-25T05:59:40.894Z,66.61
2019-02-25T06:02:08.144Z,66.60
2019-02-25T06:04:35.415Z,66.59
2019-02-25T06:07:02.698Z,66.64
2019-02-25T06:09:29.919Z,66.73
2019-02-25T06:11:57.147Z,66.75
2019-02-25T06:14:24.405Z,66.76
2019-02-25T06:16:51.689Z,66.76
2019-02-25T06:19:18.917Z,66.76
2019-02-25T06:21:46.196Z,66.81
2019-02-25T06:24:13.513Z,66.78
2019-02-25T06:26:40.790Z,66.73
2019-02-25T06:29:08.078Z,66.91
2019-02-25T06:31:35.361Z,67.10
2019-02-25T06:34:02.589Z,67.62
2019-02-25T06:36:29.822Z,67.79
2019-02-25T06:38:57.113Z,67.90
2019-02-25T06:41:24.356Z,67.85
2019-02-25T06:43:51.603Z,67.74
2019-02-25T06:46:18.875Z,67.65
2019-02-25T06:48:46.116Z,67.56
2019-02-25T06:51:16.245Z,67.48
2019-02-25T06:53:43.597Z,67.50
2019-02-25T06:56:10.838Z,67.62
2019-02-25T06:58:38.112Z,67.92
2019-02-25T07:01:05.406Z,68.43
2019-02-25T07:03:33.636Z,68.44
2019-02-25T07:06:14.976Z,68.23
2019-02-25T07:09:07.377Z,68.19
2019-02-25T07:12:00.089Z,67.97
2019-02-25T07:14:49.705Z,69.17
2019-02-25T07:17:39.108Z,69.12
2019-02-25T07:20:33.562Z,68.95
2019-02-25T07:23:30.458Z,68.76
2019-02-25T07:26:13.672Z,68.81
2019-02-25T07:28:46.489Z,68.79
2019-02-25T07:31:51.498Z,68.63
2019-02-25T07:34:41.081Z,69.14
2019-02-25T07:37:37.204Z,69.69
2019-02-25T07:40:27.580Z,69.84
2019-02-25T07:43:02.702Z,70.01
2019-02-25T07:45:47.858Z,69.77
2019-02-25T07:48:34.676Z,69.50
2019-02-25T07:51:11.026Z,69.25
2019-02-25T07:53:57.865Z,69.42
2019-02-25T07:56:41.944Z,69.31
2019-02-25T07:59:31.443Z,69.32
2019-02-25T08:02:24.067Z,68.95
2019-02-25T08:05:29.216Z,68.72
2019-02-25T08:08:21.999Z,68.52
2019-02-25T08:11:23.773Z,68.29
2019-02-25T08:14:13.520Z,67.92
2019-02-25T08:17:12.162Z,67.82
2019-02-25T08:19:58.977Z,67.63
2019-02-25T08:22:36.068Z,67.51
2019-02-25T08:25:21.843Z,66.88
2019-02-25T08:28:27.025Z,66.66
2019-02-25T08:31:12.944Z,66.39
2019-02-25T08:33:55.545Z,65.73
2019-02-25T08:37:25.080Z,65.19
2019-02-25T08:40:24.446Z,64.36
2019-02-25T08:42:55.943Z,64.42
2019-02-25T08:45:46.174Z,64.74
2019-02-25T08:48:35.048Z,64.59
2019-02-25T08:51:02.345Z,64.30
2019-02-25T08:53:31.933Z,64.04
2019-02-25T08:55:59.183Z,63.48
2019-02-25T08:58:26.482Z,62.95
2019-02-25T09:00:53.756Z,61.90
2019-02-25T09:03:21.081Z,61.35
2019-02-25T09:05:48.327Z,60.92
2019-02-25T09:08:15.580Z,61.02
2019-02-25T09:10:42.873Z,60.14
2019-02-25T09:13:10.112Z,59.74
2019-02-25T09:15:37.360Z,58.52
2019-02-25T09:18:03.501Z,59.22
2019-02-25T09:20:30.751Z,58.70
2019-02-25T09:22:57.988Z,58.02
2019-02-25T09:25:25.268Z,58.38
2019-02-25T09:27:52.645Z,58.38
2019-02-25T09:30:20.009Z,58.76
2019-02-25T09:32:49.397Z,58.05
2019-02-25T09:35:16.655Z,56.96
2019-02-25T09:37:43.957Z,56.96
2019-02-25T09:40:13.139Z,57.38
2019-02-25T09:42:40.484Z,57.58
2019-02-25T09:45:09.334Z,57.16
2019-02-25T09:47:36.581Z,56.69
2019-02-25T09:50:04.429Z,56.10
2019-02-25T09:52:31.695Z,55.73
2019-02-25T09:54:58.965Z,55.12
2019-02-25T09:57:26.232Z,54.12
2019-02-25T09:59:53.599Z,54.15
2019-02-25T10:02:20.892Z,54.85
2019-02-25T10:04:48.159Z,55.05
2019-02-25T10:07:15.449Z,54.82
2019-02-25T10:09:42.715Z,54.68
2019-02-25T10:12:09.956Z,54.51
2019-02-25T10:14:37.246Z,54.63
2019-02-25T10:17:04.559Z,53.87
2019-02-25T10:19:31.808Z,53.29
2019-02-25T10:21:59.109Z,52.97
2019-02-25T10:24:26.353Z,52.61
2019-02-25T10:26:53.698Z,52.90
2019-02-25T10:29:20.959Z,52.00
2019-02-25T10:31:48.221Z,51.99
2019-02-25T10:34:15.508Z,51.62
2019-02-25T10:36:44.026Z,51.05
2019-02-25T10:39:13.046Z,51.09
2019-02-25T10:41:41.153Z,51.38
2019-02-25T10:44:08.662Z,50.10
2019-02-25T10:46:36.017Z,49.68
2019-02-25T10:49:11.157Z,49.70
2019-02-25T10:51:32.712Z,49.96
2019-02-25T10:53:59.968Z,49.23
2019-02-25T10:56:34.819Z,48.96
2019-02-25T10:59:03.960Z,48.04
2019-02-25T11:01:31.240Z,47.99
2019-02-25T11:03:58.541Z,47.92
2019-02-25T11:06:27.335Z,48.29
2019-02-25T11:09:01.267Z,47.74
2019-02-25T11:11:32.086Z,47.01
2019-02-25T11:14:00.991Z,47.56
2019-02-25T11:16:28.682Z,47.32
2019-02-25T11:18:57.021Z,47.18
2019-02-25T11:21:25.281Z,46.73
2019-02-25T11:23:53.407Z,46.18
2019-02-25T11:26:20.968Z,45.85
2019-02-25T11:28:48.286Z,45.51
2019-02-25T11:31:26.368Z,45.46
2019-02-25T11:33:52.969Z,45.38
2019-02-25T11:36:21.982Z,44.40
2019-02-25T11:38:49.504Z,44.27
2019-02-25T11:41:16.752Z,44.42
2019-02-25T11:43:45.861Z,43.65
2019-02-25T11:46:13.233Z,43.55
2019-02-25T11:48:40.480Z,43.80
2019-02-25T11:51:07.803Z,44.78
2019-02-25T11:53:35.057Z,44.95
2019-02-25T11:56:02.497Z,45.21
2019-02-25T11:58:29.863Z,45.93
2019-02-25T12:00:57.161Z,44.74
2019-02-25T12:03:26.572Z,44.42
2019-02-25T12:05:53.878Z,44.07
2019-02-25T12:08:21.196Z,40.65
2019-02-25T12:10:48.576Z,39.54
2019-02-25T12:13:15.852Z,40.24
2019-02-25T12:15:43.255Z,41.13
2019-02-25T12:18:10.489Z,40.31
2019-02-25T12:20:37.813Z,41.19
2019-02-25T12:23:05.173Z,41.83
2019-02-25T12:25:32.413Z,41.20
2019-02-25T12:28:00.336Z,41.13
2019-02-25T12:30:27.717Z,41.57
2019-02-25T12:32:54.990Z,41.91
2019-02-25T12:35:22.703Z,41.63
2019-02-25T12:37:49.974Z,42.06
2019-02-25T12:40:18.020Z,41.58
2019-02-25T12:42:46.040Z,41.22
2019-02-25T12:45:14.146Z,41.99
2019-02-25T12:47:41.485Z,41.49
2019-02-25T12:50:09.450Z,41.07
2019-02-25T12:52:36.767Z,40.97
2019-02-25T12:55:04.455Z,40.74
2019-02-25T12:57:31.697Z,40.91
2019-02-25T12:59:59.004Z,40.61
2019-02-25T13:02:26.522Z,40.96
2019-02-25T13:04:53.934Z,39.88
2019-02-25T13:07:21.250Z,40.87
2019-02-25T13:09:48.568Z,41.53
2019-02-25T13:12:15.876Z,41.70
2019-02-25T13:14:43.175Z,39.91
2019-02-25T13:17:10.434Z,39.34
2019-02-25T13:19:37.775Z,39.50
2019-02-25T13:22:05.034Z,39.43
2019-02-25T13:24:32.864Z,40.09
2019-02-25T13:27:03.181Z,39.31
2019-02-25T13:29:30.852Z,39.65
2019-02-25T13:31:58.174Z,40.72
2019-02-25T13:34:25.447Z,40.58
2019-02-25T13:36:52.743Z,40.33
2019-02-25T13:39:20.156Z,39.70
2019-02-25T13:41:47.512Z,38.62
2019-02-25T13:44:15.308Z,39.03
2019-02-25T13:46:42.608Z,38.78
2019-02-25T13:49:09.910Z,38.17
2019-02-25T13:51:37.188Z,37.67
2019-02-25T13:54:04.532Z,38.01
2019-02-25T13:56:31.851Z,38.33
2019-02-25T13:58:59.109Z,38.18
2019-02-25T14:01:28.859Z,38.87
2019-02-25T14:03:55.806Z,39.15
2019-02-25T14:06:23.105Z,38.14
2019-02-25T14:08:50.435Z,37.89
2019-02-25T14:11:17.796Z,37.91
2019-02-25T14:13:45.302Z,37.81
2019-02-25T14:16:12.677Z,37.97
2019-02-25T14:18:39.990Z,38.93
2019-02-25T14:21:07.343Z,39.10
2019-02-25T14:23:34.598Z,39.42
2019-02-25T14:26:01.932Z,39.85
2019-02-25T14:28:30.075Z,39.97
2019-02-25T14:30:57.678Z,40.38
2019-02-25T14:33:24.962Z,40.95
2019-02-25T14:35:53.164Z,40.97
2019-02-25T14:38:22.679Z,41.23
2019-02-25T14:40:51.367Z,41.70
2019-02-25T14:43:20.583Z,42.30
2019-02-25T14:45:51.768Z,41.43
2019-02-25T14:48:20.455Z,40.98
2019-02-25T14:50:46.766Z,40.66
2019-02-25T14:53:14.494Z,40.62
2019-02-25T14:55:42.800Z,40.66
2019-02-25T14:58:12.752Z,40.50
2019-02-25T15:00:40.680Z,40.87
2019-02-25T15:03:08.154Z,41.11
2019-02-25T15:05:35.514Z,41.16
2019-02-25T15:08:03.006Z,41.25
2019-02-25T15:10:31.573Z,41.06
2019-02-25T15:13:01.639Z,41.13
2019-02-25T15:15:28.845Z,41.79
2019-02-25T15:17:56.328Z,41.68
2019-02-25T15:20:25.959Z,41.93
2019-02-25T15:22:53.039Z,41.70
2019-02-25T15:25:20.561Z,41.86
2019-02-25T15:27:47.924Z,41.27
2019-02-25T15:30:18.584Z,41.02
2019-02-25T15:32:55.591Z,41.45
2019-02-25T15:35:16.993Z,41.43
2019-02-25T15:37:46.581Z,41.53
2019-02-25T15:40:17.937Z,41.26
2019-02-25T15:42:43.868Z,40.97
2019-02-25T15:45:14.379Z,40.74
2019-02-25T15:47:42.456Z,40.57
2019-02-25T15:50:12.760Z,40.69
2019-02-25T15:52:40.514Z,40.26
2019-02-25T15:55:17.337Z,39.63
2019-02-25T15:57:45.593Z,39.47
2019-02-25T16:00:16.202Z,39.79
2019-02-25T16:02:43.531Z,39.81
2019-02-25T16:05:11.092Z,39.97
2019-02-25T16:07:40.111Z,40.04
2019-02-25T16:10:09.594Z,40.32
2019-02-25T16:12:38.502Z,40.63
2019-02-25T16:15:11.113Z,40.92
2019-02-25T16:17:39.718Z,41.32
2019-02-25T16:20:08.343Z,41.36
2019-02-25T16:22:36.393Z,41.12
2019-02-25T16:25:07.343Z,40.97
2019-02-25T16:27:36.926Z,41.18
2019-02-25T16:30:08.067Z,41.44
2019-02-25T16:32:35.356Z,41.15
2019-02-25T16:35:06.753Z,41.06
2019-02-25T16:37:35.571Z,41.15
2019-02-25T16:40:05.778Z,41.75
2019-02-25T16:42:33.134Z,42.73
2019-02-25T16:45:03.833Z,43.45
2019-02-25T16:47:32.912Z,44.93
2019-02-25T16:50:00.762Z,50.24
2019-02-25T16:52:28.474Z,51.30
2019-02-25T16:54:55.841Z,52.91
2019-02-25T16:57:24.687Z,53.04
2019-02-25T16:59:53.755Z,53.56
2019-02-25T17:02:21.637Z,54.16
2019-02-25T17:04:48.966Z,54.43
2019-02-25T17:07:17.849Z,55.12
2019-02-25T17:09:45.489Z,55.46
2019-02-25T17:12:12.885Z,55.40
2019-02-25T17:14:40.965Z,55.25
2019-02-25T17:17:08.816Z,55.65
2019-02-25T17:19:38.485Z,55.46
2019-02-25T17:22:05.558Z,55.38
2019-02-25T17:24:34.758Z,55.45
2019-02-25T17:27:04.439Z,55.34
2019-02-25T17:29:31.958Z,55.56
2019-02-25T17:32:01.896Z,55.72
2019-02-25T17:34:29.721Z,55.92
2019-02-25T17:36:57.222Z,56.08
2019-02-25T17:39:24.490Z,56.41
2019-02-25T17:41:51.808Z,59.30
2019-02-25T17:44:20.690Z,58.30
2019-02-25T17:46:48.261Z,57.98
2019-02-25T17:49:17.349Z,60.18
2019-02-25T17:51:44.721Z,61.04
2019-02-25T17:54:12.509Z,60.84
2019-02-25T17:56:42.946Z,60.52
2019-02-25T17:59:10.381Z,60.78
2019-02-25T18:01:37.681Z,62.00
2019-02-25T18:04:06.683Z,61.93
2019-02-25T18:06:36.201Z,62.27
2019-02-25T18:09:07.758Z,62.07
2019-02-25T18:11:36.919Z,62.02
2019-02-25T18:14:04.647Z,61.58
2019-02-25T18:16:33.263Z,61.90
2019-02-25T18:19:01.226Z,61.98
2019-02-25T18:21:29.045Z,61.98
2019-02-25T18:23:56.465Z,61.92
2019-02-25T18:26:24.062Z,61.88
2019-02-25T18:28:52.636Z,61.78
2019-02-25T18:31:20.455Z,61.53
2019-02-25T18:33:48.609Z,61.54
2019-02-25T18:36:17.149Z,61.59
2019-02-25T18:38:46.222Z,61.45
2019-02-25T18:41:13.762Z,61.34
2019-02-25T18:43:42.847Z,60.99
2019-02-25T18:46:10.237Z,60.84
2019-02-25T18:48:37.595Z,60.74
2019-02-25T18:51:05.036Z,60.78
2019-02-25T18:53:32.786Z,60.63
2019-02-25T18:56:00.059Z,60.15
2019-02-25T18:58:27.342Z,60.15
2019-02-25T19:00:57.009Z,60.22
2019-02-25T19:03:24.918Z,60.22
2019-02-25T19:05:54.963Z,60.02
2019-02-25T19:08:24.624Z,60.13
2019-02-25T19:10:54.825Z,60.03
2019-02-25T19:13:23.287Z,60.17
2019-02-25T19:15:53.072Z,60.55
2019-02-25T19:18:21.207Z,61.67
2019-02-25T19:20:48.504Z,61.67
2019-02-25T19:23:16.584Z,61.54
2019-02-25T19:25:44.184Z,61.54
2019-02-25T19:28:14.252Z,61.26
2019-02-25T19:30:40.936Z,60.99
2019-02-25T19:33:11.381Z,60.97
2019-02-25T19:35:38.985Z,60.71
2019-02-25T19:38:07.844Z,60.65
2019-02-25T19:40:38.448Z,61.38
2019-02-25T19:43:06.418Z,61.38
2019-02-25T19:45:34.343Z,61.22
2019-02-25T19:48:05.204Z,61.22
2019-02-25T19:50:34.210Z,61.08
2019-02-25T19:53:04.617Z,60.64
2019-02-25T19:55:30.955Z,60.82
2019-02-25T19:57:59.689Z,60.82
2019-02-25T20:00:29.729Z,60.69
2019-02-25T20:03:05.047Z,60.81
2019-02-25T20:05:27.732Z,60.70
2019-02-25T20:07:57.413Z,61.40
2019-02-25T20:10:25.329Z,63.52
2019-02-25T20:12:53.293Z,63.83
2019-02-25T20:15:24.904Z,63.83
2019-02-25T20:17:50.604Z,63.82
2019-02-25T20:20:19.721Z,63.82
2019-02-25T20:22:47.359Z,64.22
2019-02-25T20:25:16.668Z,64.22
2019-02-25T20:27:44.854Z,64.00
2019-02-25T20:30:13.755Z,63.99
2019-02-25T20:32:42.885Z,63.72
2019-02-25T20:35:13.997Z,64.58
2019-02-25T20:37:40.965Z,64.27
2019-02-25T20:40:09.219Z,63.82
2019-02-25T20:42:36.560Z,63.38
2019-02-25T20:45:05.382Z,63.30
2019-02-25T20:47:32.685Z,63.29
2019-02-25T20:50:00.603Z,63.28
2019-02-25T20:52:29.173Z,62.94
2019-02-25T20:54:56.479Z,62.99
2019-02-25T20:57:23.754Z,62.41
2019-02-25T20:59:52.798Z,62.41
2019-02-25T21:02:21.131Z,62.66
2019-02-25T21:04:51.884Z,62.53
2019-02-25T21:07:19.211Z,62.36
2019-02-25T21:09:46.514Z,61.69
2019-02-25T21:12:15.679Z,61.69
2019-02-25T21:14:44.861Z,61.26
2019-02-25T21:17:12.172Z,61.79
2019-02-25T21:19:40.042Z,61.79
2019-02-25T21:22:08.885Z,62.06
2019-02-25T21:24:37.550Z,61.95
2019-02-25T21:27:06.360Z,61.90
2019-02-25T21:29:36.506Z,61.71
2019-02-25T21:32:03.668Z,61.71
2019-02-25T21:34:32.848Z,61.49
2019-02-25T21:37:00.729Z,61.53
2019-02-25T21:39:29.284Z,61.45
2019-02-25T21:41:56.512Z,61.41
2019-02-25T21:44:26.207Z,61.36
2019-02-25T21:46:54.052Z,61.39
2019-02-25T21:49:25.114Z,61.38
2019-02-25T21:51:51.099Z,61.30
2019-02-25T21:54:18.367Z,61.19
2019-02-25T21:56:45.685Z,61.17
2019-02-25T21:59:15.084Z,61.22
2019-02-25T22:01:42.084Z,61.20
2019-02-25T22:04:13.161Z,61.18
2019-02-25T22:06:38.571Z,61.14
2019-02-25T22:09:06.596Z,61.23
2019-02-25T22:11:33.916Z,61.23
2019-02-25T22:14:01.171Z,61.25
2019-02-25T22:16:30.106Z,61.30
2019-02-25T22:18:58.743Z,61.21
2019-02-25T22:21:26.194Z,61.30
2019-02-25T22:23:56.165Z,61.40
2019-02-25T22:26:26.587Z,61.39
2019-02-25T22:28:53.222Z,61.43
2019-02-25T22:31:21.225Z,61.52
2019-02-25T22:33:48.549Z,61.52
2019-02-25T22:36:15.899Z,61.61
2019-02-25T22:38:43.214Z,61.61
2019-02-25T22:41:10.502Z,61.69
2019-02-25T22:43:39.144Z,61.75
2019-02-25T22:46:09.208Z,61.83
2019-02-25T22:48:37.566Z,61.78
2019-02-25T22:51:07.012Z,61.77
2019-02-25T22:53:34.428Z,61.86
2019-02-25T22:56:03.972Z,61.92
2019-02-25T22:58:33.959Z,62.00
2019-02-25T23:01:09.558Z,62.12
2019-02-25T23:03:36.842Z,62.29
2019-02-25T23:06:04.245Z,62.37
2019-02-25T23:08:31.567Z,62.37
2019-02-25T23:10:59.473Z,62.49
2019-02-25T23:13:29.333Z,62.48
2019-02-25T23:15:55.965Z,62.51
2019-02-25T23:18:25.827Z,62.65
2019-02-25T23:20:54.771Z,62.67
2019-02-25T23:23:25.394Z,62.73
2019-02-25T23:25:51.506Z,62.83
2019-02-25T23:28:21.018Z,62.98
2019-02-25T23:30:51.011Z,63.00
2019-02-25T23:33:19.738Z,63.19
2019-02-25T23:35:49.177Z,63.66
2019-02-25T23:38:16.689Z,63.72
2019-02-25T23:41:09.992Z,63.77
2019-02-25T23:44:07.124Z,64.00
2019-02-25T23:46:37.232Z,64.24
2019-02-25T23:49:04.947Z,64.30
2019-02-25T23:51:32.185Z,64.29
2019-02-25T23:53:59.581Z,64.16
2019-02-25T23:56:27.516Z,64.09
2019-02-25T23:58:56.000Z,64.02
